sensor_id;sensor_type;location;lat;lon;timestamp;pressure;altitude;pressure_sealevel;temperature;humidity
80382;BME280;69692;55.820;37.490;2024-02-04T00:01:46;96672.25;;;0.45;83.03
80382;BME280;69692;55.820;37.490;2024-02-04T00:04:11;96667.03;;;0.50;82.84
80382;BME280;69692;55.820;37.490;2024-02-04T00:06:37;96673.25;;;0.44;83.12
80382;BME280;69692;55.820;37.490;2024-02-04T00:09:03;96663.97;;;0.42;83.39
80382;BME280;69692;55.820;37.490;2024-02-04T00:11:30;96655.09;;;0.48;83.42
80382;BME280;69692;55.820;37.490;2024-02-04T00:13:56;96650.91;;;0.35;83.51
80382;BME280;69692;55.820;37.490;2024-02-04T00:16:40;96652.84;;;0.40;83.48
80382;BME280;69692;55.820;37.490;2024-02-04T00:19:06;96644.03;;;0.34;84.21
80382;BME280;69692;55.820;37.490;2024-02-04T00:21:34;96635.28;;;0.34;83.55
80382;BME280;69692;55.820;37.490;2024-02-04T00:24:00;96631.19;;;0.43;83.59
80382;BME280;69692;55.820;37.490;2024-02-04T00:26:25;96627.28;;;0.45;83.57
80382;BME280;69692;55.820;37.490;2024-02-04T00:28:51;96622.47;;;0.59;82.72
80382;BME280;69692;55.820;37.490;2024-02-04T00:31:17;96625.34;;;0.57;82.21
80382;BME280;69692;55.820;37.490;2024-02-04T00:33:43;96616.72;;;0.62;83.50
80382;BME280;69692;55.820;37.490;2024-02-04T00:36:09;96614.31;;;0.61;82.72
80382;BME280;69692;55.820;37.490;2024-02-04T00:38:35;96607.88;;;0.56;83.62
80382;BME280;69692;55.820;37.490;2024-02-04T00:43:45;96592.66;;;0.64;83.14
80382;BME280;69692;55.820;37.490;2024-02-04T00:46:10;96594.63;;;0.73;82.55
80382;BME280;69692;55.820;37.490;2024-02-04T00:48:37;96592.88;;;0.79;83.18
80382;BME280;69692;55.820;37.490;2024-02-04T00:51:03;96585.72;;;0.79;82.21
80382;BME280;69692;55.820;37.490;2024-02-04T00:53:29;96579.75;;;0.89;82.82
80382;BME280;69692;55.820;37.490;2024-02-04T00:56:03;96574.25;;;0.91;82.18
80382;BME280;69692;55.820;37.490;2024-02-04T01:01:32;96579.09;;;0.99;82.58
80382;BME280;69692;55.820;37.490;2024-02-04T01:03:58;96574.91;;;1.03;81.88
80382;BME280;69692;55.820;37.490;2024-02-04T01:06:24;96570.06;;;0.95;82.32
80382;BME280;69692;55.820;37.490;2024-02-04T01:08:50;96562.63;;;0.92;82.06
80382;BME280;69692;55.820;37.490;2024-02-04T01:11:16;96563.78;;;1.01;82.10
80382;BME280;69692;55.820;37.490;2024-02-04T01:14:01;96556.81;;;0.95;81.78
80382;BME280;69692;55.820;37.490;2024-02-04T01:16:27;96545.59;;;1.04;82.63
80382;BME280;69692;55.820;37.490;2024-02-04T01:18:53;96537.69;;;1.09;81.83
80382;BME280;69692;55.820;37.490;2024-02-04T01:21:19;96532.09;;;1.06;82.26
80382;BME280;69692;55.820;37.490;2024-02-04T01:23:45;96529.03;;;1.19;82.21
80382;BME280;69692;55.820;37.490;2024-02-04T01:26:11;96525.94;;;1.22;80.94
80382;BME280;69692;55.820;37.490;2024-02-04T01:28:36;96520.22;;;1.08;81.39
80382;BME280;69692;55.820;37.490;2024-02-04T01:31:02;96526.97;;;1.21;81.81
80382;BME280;69692;55.820;37.490;2024-02-04T01:33:28;96523.63;;;1.31;81.52
80382;BME280;69692;55.820;37.490;2024-02-04T01:35:55;96518.66;;;1.34;81.34
80382;BME280;69692;55.820;37.490;2024-02-04T01:38:21;96519.47;;;1.35;81.15
80382;BME280;69692;55.820;37.490;2024-02-04T01:43:31;96501.28;;;1.48;81.01
80382;BME280;69692;55.820;37.490;2024-02-04T01:45:57;96500.59;;;1.58;81.18
80382;BME280;69692;55.820;37.490;2024-02-04T01:48:23;96491.28;;;1.51;80.92
80382;BME280;69692;55.820;37.490;2024-02-04T01:50:50;96489.41;;;1.51;81.46
80382;BME280;69692;55.820;37.490;2024-02-04T01:53:22;96485.22;;;1.55;81.22
80382;BME280;69692;55.820;37.490;2024-02-04T01:55:49;96483.91;;;1.58;81.05
80382;BME280;69692;55.820;37.490;2024-02-04T01:58:15;96488.44;;;1.62;81.01
80382;BME280;69692;55.820;37.490;2024-02-04T02:00:42;96486.06;;;1.61;81.40
80382;BME280;69692;55.820;37.490;2024-02-04T02:03:11;96473.66;;;1.66;81.63
80382;BME280;69692;55.820;37.490;2024-02-04T02:05:37;96468.41;;;1.71;81.48
80382;BME280;69692;55.820;37.490;2024-02-04T02:08:04;96467.88;;;1.74;80.92
80382;BME280;69692;55.820;37.490;2024-02-04T02:10:31;96469.41;;;1.65;80.91
80382;BME280;69692;55.820;37.490;2024-02-04T02:13:11;96462.28;;;1.66;82.04
80382;BME280;69692;55.820;37.490;2024-02-04T02:15:50;96458.56;;;1.67;81.56
80382;BME280;69692;55.820;37.490;2024-02-04T02:19:44;96455.41;;;1.70;81.81
80382;BME280;69692;55.820;37.490;2024-02-04T02:22:06;96451.69;;;1.71;81.63
80382;BME280;69692;55.820;37.490;2024-02-04T02:24:38;96451.97;;;1.69;82.29
80382;BME280;69692;55.820;37.490;2024-02-04T02:27:05;96451.94;;;1.64;82.73
80382;BME280;69692;55.820;37.490;2024-02-04T02:29:32;96446.38;;;1.66;82.75
80382;BME280;69692;55.820;37.490;2024-02-04T02:32:01;96447.19;;;1.71;82.65
80382;BME280;69692;55.820;37.490;2024-02-04T02:34:30;96447.19;;;1.71;82.68
80382;BME280;69692;55.820;37.490;2024-02-04T02:37:20;96444.84;;;1.75;82.43
80382;BME280;69692;55.820;37.490;2024-02-04T02:42:38;96437.44;;;1.77;82.68
80382;BME280;69692;55.820;37.490;2024-02-04T02:45:06;96430.28;;;1.77;82.86
80382;BME280;69692;55.820;37.490;2024-02-04T02:47:32;96425.03;;;1.83;82.97
80382;BME280;69692;55.820;37.490;2024-02-04T02:50:00;96416.03;;;1.84;82.98
80382;BME280;69692;55.820;37.490;2024-02-04T02:52:45;96424.25;;;1.82;82.97
80382;BME280;69692;55.820;37.490;2024-02-04T02:55:11;96421.03;;;1.80;83.32
80382;BME280;69692;55.820;37.490;2024-02-04T02:57:36;96414.31;;;1.67;83.91
80382;BME280;69692;55.820;37.490;2024-02-04T03:00:03;96415.69;;;1.75;84.50
80382;BME280;69692;55.820;37.490;2024-02-04T03:02:32;96403.28;;;1.81;84.32
80382;BME280;69692;55.820;37.490;2024-02-04T03:04:58;96399.03;;;1.79;84.20
80382;BME280;69692;55.820;37.490;2024-02-04T03:07:24;96400.94;;;1.84;84.23
80382;BME280;69692;55.820;37.490;2024-02-04T03:09:52;96398.00;;;1.86;84.04
80382;BME280;69692;55.820;37.490;2024-02-04T03:12:37;96398.00;;;1.86;84.14
80382;BME280;69692;55.820;37.490;2024-02-04T03:15:03;96397.91;;;1.70;85.32
80382;BME280;69692;55.820;37.490;2024-02-04T03:17:49;96397.91;;;1.70;84.64
80382;BME280;69692;55.820;37.490;2024-02-04T03:20:15;96390.00;;;1.75;84.68
80382;BME280;69692;55.820;37.490;2024-02-04T03:22:41;96388.13;;;1.76;85.43
80382;BME280;69692;55.820;37.490;2024-02-04T03:25:07;96389.69;;;1.67;85.97
80382;BME280;69692;55.820;37.490;2024-02-04T03:27:33;96390.22;;;1.69;86.58
80382;BME280;69692;55.820;37.490;2024-02-04T03:32:43;96392.59;;;1.65;86.49
80382;BME280;69692;55.820;37.490;2024-02-04T03:35:09;96389.41;;;1.68;86.85
80382;BME280;69692;55.820;37.490;2024-02-04T03:37:35;96383.31;;;1.68;86.80
80382;BME280;69692;55.820;37.490;2024-02-04T03:40:01;96390.47;;;1.67;86.95
80382;BME280;69692;55.820;37.490;2024-02-04T03:42:29;96378.03;;;1.68;86.26
80382;BME280;69692;55.820;37.490;2024-02-04T03:44:56;96376.78;;;1.81;86.27
80382;BME280;69692;55.820;37.490;2024-02-04T03:47:21;96369.91;;;1.85;86.18
80382;BME280;69692;55.820;37.490;2024-02-04T03:50:06;96359.06;;;1.91;85.58
80382;BME280;69692;55.820;37.490;2024-02-04T03:52:32;96359.38;;;1.95;85.12
80382;BME280;69692;55.820;37.490;2024-02-04T03:54:58;96358.81;;;1.93;85.74
80382;BME280;69692;55.820;37.490;2024-02-04T03:57:25;96363.84;;;1.89;85.90
80382;BME280;69692;55.820;37.490;2024-02-04T03:59:51;96363.31;;;1.92;85.53
80382;BME280;69692;55.820;37.490;2024-02-04T04:02:16;96359.38;;;1.95;85.86
80382;BME280;69692;55.820;37.490;2024-02-04T04:04:42;96350.13;;;1.97;85.88
80382;BME280;69692;55.820;37.490;2024-02-04T04:07:13;96353.59;;;2.03;85.63
80382;BME280;69692;55.820;37.490;2024-02-04T04:09:39;96362.03;;;1.95;85.89
80382;BME280;69692;55.820;37.490;2024-02-04T04:12:05;96358.31;;;1.96;85.65
80382;BME280;69692;55.820;37.490;2024-02-04T04:14:31;96360.41;;;1.89;86.47
80382;BME280;69692;55.820;37.490;2024-02-04T04:16:57;96357.22;;;1.92;86.36
80382;BME280;69692;55.820;37.490;2024-02-04T04:19:23;96346.88;;;1.90;86.14
80382;BME280;69692;55.820;37.490;2024-02-04T04:21:50;96354.28;;;1.83;86.73
80382;BME280;69692;55.820;37.490;2024-02-04T04:24:16;96350.81;;;1.83;86.77
80382;BME280;69692;55.820;37.490;2024-02-04T04:26:45;96347.13;;;1.89;86.54
80382;BME280;69692;55.820;37.490;2024-02-04T04:29:11;96340.78;;;1.90;87.01
80382;BME280;69692;55.820;37.490;2024-02-04T04:31:37;96340.78;;;1.90;86.41
80382;BME280;69692;55.820;37.490;2024-02-04T04:34:03;96337.31;;;1.84;87.28
80382;BME280;69692;55.820;37.490;2024-02-04T04:36:29;96340.22;;;1.83;86.97
80382;BME280;69692;55.820;37.490;2024-02-04T04:38:54;96338.13;;;1.90;87.19
80382;BME280;69692;55.820;37.490;2024-02-04T04:44:05;96334.75;;;1.99;86.78
80382;BME280;69692;55.820;37.490;2024-02-04T04:46:30;96331.28;;;1.94;86.39
80382;BME280;69692;55.820;37.490;2024-02-04T04:48:56;96333.44;;;2.02;86.92
80382;BME280;69692;55.820;37.490;2024-02-04T04:51:45;96331.56;;;2.02;86.32
80382;BME280;69692;55.820;37.490;2024-02-04T04:54:14;96331.56;;;1.97;86.09
80382;BME280;69692;55.820;37.490;2024-02-04T04:56:58;96330.97;;;1.90;86.86
80382;BME280;69692;55.820;37.490;2024-02-04T04:59:24;96326.38;;;1.75;87.42
80382;BME280;69692;55.820;37.490;2024-02-04T05:01:50;96322.94;;;1.75;87.69
80382;BME280;69692;55.820;37.490;2024-02-04T05:04:17;96320.63;;;1.84;87.54
80382;BME280;69692;55.820;37.490;2024-02-04T05:09:29;96317.72;;;1.85;87.67
80382;BME280;69692;55.820;37.490;2024-02-04T05:11:55;96321.16;;;1.91;87.74
80382;BME280;69692;55.820;37.490;2024-02-04T05:14:20;96314.56;;;1.93;87.04
80382;BME280;69692;55.820;37.490;2024-02-04T05:16:47;96311.63;;;1.90;87.61
80382;BME280;69692;55.820;37.490;2024-02-04T05:19:13;96314.06;;;1.96;87.16
80382;BME280;69692;55.820;37.490;2024-02-04T05:21:39;96303.66;;;1.90;87.33
80382;BME280;69692;55.820;37.490;2024-02-04T05:24:08;96314.84;;;1.97;86.81
80382;BME280;69692;55.820;37.490;2024-02-04T05:26:52;96316.94;;;1.90;86.96
80382;BME280;69692;55.820;37.490;2024-02-04T05:32:03;96312.66;;;1.84;87.29
80382;BME280;69692;55.820;37.490;2024-02-04T05:34:29;96305.25;;;1.91;87.58
80382;BME280;69692;55.820;37.490;2024-02-04T05:36:56;96307.13;;;1.90;86.95
80382;BME280;69692;55.820;37.490;2024-02-04T05:39:22;96308.97;;;1.90;87.19
80382;BME280;69692;55.820;37.490;2024-02-04T05:41:49;96313.19;;;1.86;87.45
80382;BME280;69692;55.820;37.490;2024-02-04T05:44:34;96316.38;;;1.88;87.26
80382;BME280;69692;55.820;37.490;2024-02-04T05:47:00;96314.72;;;1.71;88.21
80382;BME280;69692;55.820;37.490;2024-02-04T05:49:26;96317.13;;;1.78;88.03
80382;BME280;69692;55.820;37.490;2024-02-04T05:51:51;96324.31;;;1.83;88.08
80382;BME280;69692;55.820;37.490;2024-02-04T05:54:17;96325.41;;;1.87;88.15
80382;BME280;69692;55.820;37.490;2024-02-04T05:56:43;96327.19;;;1.76;87.62
80382;BME280;69692;55.820;37.490;2024-02-04T05:59:09;96331.91;;;1.64;88.29
80382;BME280;69692;55.820;37.490;2024-02-04T06:01:35;96335.53;;;1.58;88.94
80382;BME280;69692;55.820;37.490;2024-02-04T06:04:02;96328.09;;;1.49;88.85
80382;BME280;69692;55.820;37.490;2024-02-04T06:06:27;96324.94;;;1.53;89.63
80382;BME280;69692;55.820;37.490;2024-02-04T06:08:53;96339.59;;;1.65;89.07
80382;BME280;69692;55.820;37.490;2024-02-04T06:11:19;96341.47;;;1.70;87.83
80382;BME280;69692;55.820;37.490;2024-02-04T06:13:45;96348.06;;;1.67;88.56
80382;BME280;69692;55.820;37.490;2024-02-04T06:16:11;96343.97;;;1.49;89.09
80382;BME280;69692;55.820;37.490;2024-02-04T06:18:40;96348.91;;;1.36;89.16
80382;BME280;69692;55.820;37.490;2024-02-04T06:21:06;96355.78;;;1.37;89.67
80382;BME280;69692;55.820;37.490;2024-02-04T06:23:32;96363.75;;;1.37;89.59
80382;BME280;69692;55.820;37.490;2024-02-04T06:25:59;96366.94;;;1.39;89.69
80382;BME280;69692;55.820;37.490;2024-02-04T06:28:25;96366.41;;;1.42;89.60
80382;BME280;69692;55.820;37.490;2024-02-04T06:30:51;96366.94;;;1.39;89.27
80382;BME280;69692;55.820;37.490;2024-02-04T06:33:17;96373.78;;;1.35;89.94
80382;BME280;69692;55.820;37.490;2024-02-04T06:35:43;96374.34;;;1.37;89.60
80382;BME280;69692;55.820;37.490;2024-02-04T06:38:09;96384.63;;;1.33;90.03
80382;BME280;69692;55.820;37.490;2024-02-04T06:40:35;96384.56;;;1.28;89.98
80382;BME280;69692;55.820;37.490;2024-02-04T06:43:01;96387.03;;;1.35;90.36
80382;BME280;69692;55.820;37.490;2024-02-04T06:45:27;96384.56;;;1.28;91.03
80382;BME280;69692;55.820;37.490;2024-02-04T06:47:52;96392.53;;;1.28;92.41
80382;BME280;69692;55.820;37.490;2024-02-04T06:50:18;96395.97;;;1.29;92.75
80382;BME280;69692;55.820;37.490;2024-02-04T06:52:45;96392.81;;;1.32;92.37
80382;BME280;69692;55.820;37.490;2024-02-04T06:55:11;96396.50;;;1.31;91.83
80382;BME280;69692;55.820;37.490;2024-02-04T06:57:38;96402.94;;;1.35;90.56
80382;BME280;69692;55.820;37.490;2024-02-04T07:00:06;96401.09;;;1.40;90.78
80382;BME280;69692;55.820;37.490;2024-02-04T07:02:34;96408.91;;;1.25;90.25
80382;BME280;69692;55.820;37.490;2024-02-04T07:05:00;96415.59;;;1.33;90.29
80382;BME280;69692;55.820;37.490;2024-02-04T07:07:26;96409.09;;;1.18;90.97
80382;BME280;69692;55.820;37.490;2024-02-04T07:09:52;96418.34;;;1.16;91.23
80382;BME280;69692;55.820;37.490;2024-02-04T07:12:18;96418.59;;;1.14;91.35
80382;BME280;69692;55.820;37.490;2024-02-04T07:14:44;96424.91;;;1.08;91.14
80382;BME280;69692;55.820;37.490;2024-02-04T07:17:09;96427.84;;;1.12;91.26
80382;BME280;69692;55.820;37.490;2024-02-04T07:19:37;96435.19;;;1.05;91.45
80382;BME280;69692;55.820;37.490;2024-02-04T07:22:04;96441.59;;;1.09;91.11
80382;BME280;69692;55.820;37.490;2024-02-04T07:24:29;96445.00;;;1.04;91.38
80382;BME280;69692;55.820;37.490;2024-02-04T07:26:55;96430.72;;;1.05;93.35
80382;BME280;69692;55.820;37.490;2024-02-04T07:29:21;96455.38;;;1.11;96.72
80382;BME280;69692;55.820;37.490;2024-02-04T07:31:47;96459.06;;;1.10;97.09
80382;BME280;69692;55.820;37.490;2024-02-04T07:34:13;96454.56;;;1.10;96.43
80382;BME280;69692;55.820;37.490;2024-02-04T07:36:39;96458.28;;;1.09;93.17
80382;BME280;69692;55.820;37.490;2024-02-04T07:39:05;96471.50;;;1.09;92.32
80382;BME280;69692;55.820;37.490;2024-02-04T07:41:31;96475.72;;;1.05;91.73
80382;BME280;69692;55.820;37.490;2024-02-04T07:43:57;96481.88;;;1.16;92.40
80382;BME280;69692;55.820;37.490;2024-02-04T07:46:23;96470.16;;;1.07;91.57
80382;BME280;69692;55.820;37.490;2024-02-04T07:48:49;96483.16;;;1.08;90.81
80382;BME280;69692;55.820;37.490;2024-02-04T07:51:15;96482.34;;;1.08;90.94
80382;BME280;69692;55.820;37.490;2024-02-04T07:53:41;96482.91;;;1.10;91.88
80382;BME280;69692;55.820;37.490;2024-02-04T07:56:07;96493.22;;;1.11;91.01
80382;BME280;69692;55.820;37.490;2024-02-04T07:58:33;96498.31;;;1.18;91.04
80382;BME280;69692;55.820;37.490;2024-02-04T08:00:59;96502.91;;;1.23;90.54
80382;BME280;69692;55.820;37.490;2024-02-04T08:03:25;96505.22;;;1.19;92.53
80382;BME280;69692;55.820;37.490;2024-02-04T08:05:52;96509.66;;;1.13;93.98
80382;BME280;69692;55.820;37.490;2024-02-04T08:08:18;96526.31;;;1.09;94.58
80382;BME280;69692;55.820;37.490;2024-02-04T08:10:44;96514.38;;;1.06;94.74
80382;BME280;69692;55.820;37.490;2024-02-04T08:13:10;96518.34;;;1.09;95.21
80382;BME280;69692;55.820;37.490;2024-02-04T08:15:37;96529.75;;;1.09;94.35
80382;BME280;69692;55.820;37.490;2024-02-04T08:18:03;96539.28;;;1.10;93.63
80382;BME280;69692;55.820;37.490;2024-02-04T08:20:29;96538.44;;;1.05;91.08
80382;BME280;69692;55.820;37.490;2024-02-04T08:22:55;96546.44;;;1.10;90.68
80382;BME280;69692;55.820;37.490;2024-02-04T08:25:21;96555.47;;;1.14;91.56
80382;BME280;69692;55.820;37.490;2024-02-04T08:27:48;96554.78;;;1.02;90.77
80382;BME280;69692;55.820;37.490;2024-02-04T08:30:14;96566.56;;;1.11;91.09
80382;BME280;69692;55.820;37.490;2024-02-04T08:32:41;96561.03;;;1.12;90.70
80382;BME280;69692;55.820;37.490;2024-02-04T08:35:07;96567.25;;;1.23;89.66
80382;BME280;69692;55.820;37.490;2024-02-04T08:37:33;96570.75;;;1.29;89.53
80382;BME280;69692;55.820;37.490;2024-02-04T08:40:01;96569.94;;;1.28;89.48
80382;BME280;69692;55.820;37.490;2024-02-04T08:42:29;96587.25;;;1.36;88.71
80382;BME280;69692;55.820;37.490;2024-02-04T08:44:55;96583.22;;;1.33;88.66
80382;BME280;69692;55.820;37.490;2024-02-04T08:47:21;96587.69;;;1.28;88.77
80382;BME280;69692;55.820;37.490;2024-02-04T08:49:47;96595.25;;;1.19;88.97
80382;BME280;69692;55.820;37.490;2024-02-04T08:52:13;96595.25;;;1.19;88.89
80382;BME280;69692;55.820;37.490;2024-02-04T08:54:38;96604.47;;;1.16;88.97
80382;BME280;69692;55.820;37.490;2024-02-04T08:57:04;96607.31;;;1.10;89.24
80382;BME280;69692;55.820;37.490;2024-02-04T08:59:31;96605.53;;;1.15;89.18
80382;BME280;69692;55.820;37.490;2024-02-04T09:01:57;96617.72;;;1.16;89.23
80382;BME280;69692;55.820;37.490;2024-02-04T09:04:23;96609.78;;;1.16;87.58
80382;BME280;69692;55.820;37.490;2024-02-04T09:06:49;96611.13;;;1.19;87.64
80382;BME280;69692;55.820;37.490;2024-02-04T09:09:15;96605.84;;;1.19;89.11
80382;BME280;69692;55.820;37.490;2024-02-04T09:11:41;96621.31;;;1.27;86.99
80382;BME280;69692;55.820;37.490;2024-02-04T09:14:06;96617.63;;;1.28;86.73
80382;BME280;69692;55.820;37.490;2024-02-04T09:16:33;96597.16;;;1.24;85.37
80382;BME280;69692;55.820;37.490;2024-02-04T09:18:59;96619.16;;;1.24;86.26
80382;BME280;69692;55.820;37.490;2024-02-04T09:21:25;96611.28;;;1.29;86.46
80382;BME280;69692;55.820;37.490;2024-02-04T09:23:51;96623.72;;;1.29;86.23
80382;BME280;69692;55.820;37.490;2024-02-04T09:26:17;96619.03;;;1.36;83.92
80382;BME280;69692;55.820;37.490;2024-02-04T09:28:42;96616.56;;;1.29;85.28
80382;BME280;69692;55.820;37.490;2024-02-04T09:31:08;96621.69;;;1.36;84.53
80382;BME280;69692;55.820;37.490;2024-02-04T09:33:35;96621.69;;;1.36;85.53
80382;BME280;69692;55.820;37.490;2024-02-04T09:36:04;96628.59;;;1.37;84.19
80382;BME280;69692;55.820;37.490;2024-02-04T09:38:30;96623.28;;;1.37;84.55
80382;BME280;69692;55.820;37.490;2024-02-04T09:40:56;96631.78;;;1.39;84.20
80382;BME280;69692;55.820;37.490;2024-02-04T09:43:23;96640.84;;;1.43;84.17
80382;BME280;69692;55.820;37.490;2024-02-04T09:45:50;96634.34;;;1.34;84.85
80382;BME280;69692;55.820;37.490;2024-02-04T09:48:18;96642.31;;;1.34;82.98
80382;BME280;69692;55.820;37.490;2024-02-04T09:50:46;96640.22;;;1.36;84.26
80382;BME280;69692;55.820;37.490;2024-02-04T09:53:14;96646.50;;;1.30;87.62
80382;BME280;69692;55.820;37.490;2024-02-04T09:55:41;96642.44;;;1.22;89.58
80382;BME280;69692;55.820;37.490;2024-02-04T09:58:08;96649.59;;;1.22;89.23
80382;BME280;69692;55.820;37.490;2024-02-04T10:00:35;96640.69;;;1.11;84.85
80382;BME280;69692;55.820;37.490;2024-02-04T10:03:04;96651.69;;;1.19;82.51
80382;BME280;69692;55.820;37.490;2024-02-04T10:05:30;96658.78;;;1.19;82.98
80382;BME280;69692;55.820;37.490;2024-02-04T10:07:56;96638.34;;;1.14;82.43
80382;BME280;69692;55.820;37.490;2024-02-04T10:10:22;96658.63;;;1.26;82.30
80382;BME280;69692;55.820;37.490;2024-02-04T10:12:48;96658.78;;;1.36;81.80
80382;BME280;69692;55.820;37.490;2024-02-04T10:15:14;96664.44;;;1.44;80.01
80382;BME280;69692;55.820;37.490;2024-02-04T10:17:44;96661.19;;;1.37;79.42
80382;BME280;69692;55.820;37.490;2024-02-04T10:20:11;96645.88;;;1.23;79.71
80382;BME280;69692;55.820;37.490;2024-02-04T10:22:38;96654.53;;;1.35;80.28
80382;BME280;69692;55.820;37.490;2024-02-04T10:25:10;96655.63;;;1.39;80.31
80382;BME280;69692;55.820;37.490;2024-02-04T10:27:40;96653.28;;;1.42;79.59
80382;BME280;69692;55.820;37.490;2024-02-04T10:30:07;96660.03;;;1.50;79.24
80382;BME280;69692;55.820;37.490;2024-02-04T10:32:34;96667.72;;;1.52;78.86
80382;BME280;69692;55.820;37.490;2024-02-04T10:35:00;96666.41;;;1.54;77.69
80382;BME280;69692;55.820;37.490;2024-02-04T10:37:30;96669.06;;;1.54;77.38
80382;BME280;69692;55.820;37.490;2024-02-04T10:39:56;96673.06;;;1.57;77.63
80382;BME280;69692;55.820;37.490;2024-02-04T10:42:24;96675.63;;;1.30;77.86
80382;BME280;69692;55.820;37.490;2024-02-04T10:44:54;96676.97;;;1.32;79.24
80382;BME280;69692;55.820;37.490;2024-02-04T10:47:27;96665.53;;;1.27;77.43
80382;BME280;69692;55.820;37.490;2024-02-04T10:49:57;96686.72;;;1.27;79.02
80382;BME280;69692;55.820;37.490;2024-02-04T10:52:27;96692.88;;;1.32;78.84
80382;BME280;69692;55.820;37.490;2024-02-04T10:54:53;96694.00;;;1.36;78.04
80382;BME280;69692;55.820;37.490;2024-02-04T10:57:22;96695.25;;;1.51;77.92
80382;BME280;69692;55.820;37.490;2024-02-04T10:59:48;96698.16;;;1.49;78.43
80382;BME280;69692;55.820;37.490;2024-02-04T11:02:19;96707.56;;;1.40;78.45
80382;BME280;69692;55.820;37.490;2024-02-04T11:04:50;96697.56;;;1.47;78.10
80382;BME280;69692;55.820;37.490;2024-02-04T11:07:19;96699.59;;;1.40;78.57
80382;BME280;69692;55.820;37.490;2024-02-04T11:09:46;96697.56;;;1.47;78.35
80382;BME280;69692;55.820;37.490;2024-02-04T11:15:03;96681.16;;;1.67;77.17
80382;BME280;69692;55.820;37.490;2024-02-04T11:20:18;96711.03;;;1.84;76.84
80382;BME280;69692;55.820;37.490;2024-02-04T11:25:44;96677.88;;;1.82;75.06
80382;BME280;69692;55.820;37.490;2024-02-04T11:28:12;96684.88;;;1.93;75.55
80382;BME280;69692;55.820;37.490;2024-02-04T11:30:38;96690.81;;;2.00;75.16
80382;BME280;69692;55.820;37.490;2024-02-04T11:33:05;96688.75;;;2.07;74.81
80382;BME280;69692;55.820;37.490;2024-02-04T11:35:32;96700.22;;;2.13;75.80
80382;BME280;69692;55.820;37.490;2024-02-04T11:37:59;96701.06;;;2.18;74.61
80382;BME280;69692;55.820;37.490;2024-02-04T11:40:30;96682.97;;;2.10;74.10
80382;BME280;69692;55.820;37.490;2024-02-04T11:43:11;96708.06;;;2.02;75.04
80382;BME280;69692;55.820;37.490;2024-02-04T11:45:39;96707.44;;;2.17;74.69
80382;BME280;69692;55.820;37.490;2024-02-04T11:48:09;96694.06;;;2.07;72.98
80382;BME280;69692;55.820;37.490;2024-02-04T11:50:36;96706.94;;;2.20;72.81
80382;BME280;69692;55.820;37.490;2024-02-04T11:53:10;96712.31;;;2.25;72.12
80382;BME280;69692;55.820;37.490;2024-02-04T11:55:39;96704.19;;;2.10;72.85
80382;BME280;69692;55.820;37.490;2024-02-04T11:58:05;96708.28;;;1.96;73.03
80382;BME280;69692;55.820;37.490;2024-02-04T12:00:36;96723.41;;;1.78;72.66
80382;BME280;69692;55.820;37.490;2024-02-04T12:03:05;96720.28;;;1.82;73.01
80382;BME280;69692;55.820;37.490;2024-02-04T12:05:33;96725.34;;;1.83;73.33
80382;BME280;69692;55.820;37.490;2024-02-04T12:08:01;96728.50;;;1.80;74.12
80382;BME280;69692;55.820;37.490;2024-02-04T12:10:46;96729.28;;;1.81;74.54
80382;BME280;69692;55.820;37.490;2024-02-04T12:13:13;96730.81;;;1.76;73.54
80382;BME280;69692;55.820;37.490;2024-02-04T12:15:39;96731.59;;;1.77;74.39
80382;BME280;69692;55.820;37.490;2024-02-04T12:18:09;96731.69;;;1.82;74.74
80382;BME280;69692;55.820;37.490;2024-02-04T12:20:36;96741.00;;;1.85;74.25
80382;BME280;69692;55.820;37.490;2024-02-04T12:23:03;96737.28;;;1.86;74.77
80382;BME280;69692;55.820;37.490;2024-02-04T12:25:30;96744.09;;;1.98;74.28
80382;BME280;69692;55.820;37.490;2024-02-04T12:28:00;96732.69;;;1.98;74.56
80382;BME280;69692;55.820;37.490;2024-02-04T12:30:28;96747.03;;;2.02;73.33
80382;BME280;69692;55.820;37.490;2024-02-04T12:32:58;96740.69;;;2.03;73.90
80382;BME280;69692;55.820;37.490;2024-02-04T12:35:25;96744.00;;;1.93;74.59
80382;BME280;69692;55.820;37.490;2024-02-04T12:37:55;96745.94;;;1.98;73.87
80382;BME280;69692;55.820;37.490;2024-02-04T12:40:26;96754.94;;;1.97;74.00
80382;BME280;69692;55.820;37.490;2024-02-04T12:42:57;96743.66;;;1.85;74.82
80382;BME280;69692;55.820;37.490;2024-02-04T12:45:24;96750.81;;;1.84;74.34
80382;BME280;69692;55.820;37.490;2024-02-04T12:47:55;96747.50;;;1.77;74.43
80382;BME280;69692;55.820;37.490;2024-02-04T12:50:21;96758.13;;;1.77;75.17
80382;BME280;69692;55.820;37.490;2024-02-04T12:53:00;96753.06;;;1.75;75.40
80382;BME280;69692;55.820;37.490;2024-02-04T12:55:27;96754.41;;;1.78;75.05
80382;BME280;69692;55.820;37.490;2024-02-04T12:58:10;96751.06;;;1.83;75.48
80382;BME280;69692;55.820;37.490;2024-02-04T13:00:38;96753.00;;;1.92;73.91
80382;BME280;69692;55.820;37.490;2024-02-04T13:03:06;96739.19;;;1.90;73.32
80382;BME280;69692;55.820;37.490;2024-02-04T13:05:34;96756.91;;;1.85;74.04
80382;BME280;69692;55.820;37.490;2024-02-04T13:08:02;96762.44;;;1.83;74.15
80382;BME280;69692;55.820;37.490;2024-02-04T13:10:30;96763.75;;;1.81;74.80
80382;BME280;69692;55.820;37.490;2024-02-04T13:13:00;96762.38;;;1.78;75.19
80382;BME280;69692;55.820;37.490;2024-02-04T13:15:30;96765.16;;;1.88;74.59
80382;BME280;69692;55.820;37.490;2024-02-04T13:17:56;96768.06;;;1.87;75.62
80382;BME280;69692;55.820;37.490;2024-02-04T13:20:23;96766.31;;;1.75;75.80
80382;BME280;69692;55.820;37.490;2024-02-04T13:22:49;96776.00;;;1.87;75.84
80382;BME280;69692;55.820;37.490;2024-02-04T13:25:15;96775.50;;;1.90;75.55
80382;BME280;69692;55.820;37.490;2024-02-04T13:27:41;96779.56;;;1.75;77.29
80382;BME280;69692;55.820;37.490;2024-02-04T13:30:07;96782.97;;;1.71;77.59
80382;BME280;69692;55.820;37.490;2024-02-04T13:32:40;96776.59;;;1.72;77.69
80382;BME280;69692;55.820;37.490;2024-02-04T13:35:07;96773.09;;;1.66;77.66